Time;durP1;ratioP1;P1;durP2;ratioP2;P2;SDS_P1;SDS_P2;PMS_P1;PMS_P2;Temp;Humidity;BMP_temperature;BMP_pressure;BME280_temperature;BME280_humidity;BME280_pressure;Samples;Min_cycle;Max_cycle;Signal;HPM_P1;HPM_P2
2023/01/06 00:00:11;;;;;;;9.48;7.10;;;;;;;12.33;69.51;101285.75;683139;29;1149;-85
2023/01/06 00:00:32;;;;;;;9.60;7.28;;;;;;;12.32;69.92;101285.69;683150;29;1316;-86
2023/01/06 00:01:04;;;;;;;9.77;7.43;;;;;;;12.32;69.91;101285.69;691069;28;1333;-85
2023/01/06 00:01:26;;;;;;;10.30;7.18;;;;;;;12.27;69.70;101268.97;685629;28;1351;-85
2023/01/06 00:01:46;;;;;;;9.77;6.90;;;;;;;12.31;69.88;101281.31;680530;29;965;-85
2023/01/06 00:02:07;;;;;;;9.45;6.97;;;;;;;12.31;69.54;101282.19;683202;29;1129;-86
2023/01/06 00:02:27;;;;;;;8.60;7.07;;;;;;;12.29;69.93;101278.66;680559;29;1253;-86
2023/01/06 00:02:48;;;;;;;9.67;7.50;;;;;;;12.32;69.75;101286.59;683063;29;1058;-85
2023/01/06 00:03:09;;;;;;;9.70;7.35;;;;;;;12.26;69.81;101275.94;685766;28;1028;-86
2023/01/06 00:03:29;;;;;;;10.02;7.43;;;;;;;12.29;69.74;101278.66;683078;29;1484;-86
2023/01/06 00:03:51;;;;;;;11.20;7.67;;;;;;;12.20;69.49;101278.38;683014;29;1310;-85
2023/01/06 00:04:12;;;;;;;12.00;7.95;;;;;;;12.25;69.74;101287.28;682909;29;1973;-86
2023/01/06 00:04:33;;;;;;;11.60;7.82;;;;;;;12.26;69.57;101286.41;683098;29;1353;-86
2023/01/06 00:04:54;;;;;;;9.67;7.47;;;;;;;12.20;69.80;101279.28;685648;28;1189;-85
2023/01/06 00:05:14;;;;;;;8.90;7.20;;;;;;;12.26;69.64;101283.81;685569;28;1226;-86
2023/01/06 00:05:35;;;;;;;8.43;7.18;;;;;;;12.26;69.81;101293.38;688563;28;1211;-86
2023/01/06 00:06:00;;;;;;;8.97;7.50;;;;;;;12.15;70.01;101280.88;691024;28;1179;-86
2023/01/06 00:06:26;;;;;;;10.15;7.80;;;;;;;12.15;69.94;101274.72;688434;28;1080;-86
2023/01/06 00:06:46;;;;;;;10.20;7.70;;;;;;;12.16;70.07;101276.53;682951;29;999;-86
2023/01/06 00:07:07;;;;;;;9.50;7.22;;;;;;;12.18;69.90;101273.09;677798;29;1101;-86
2023/01/06 00:07:28;;;;;;;9.30;7.15;;;;;;;12.20;70.01;101274.06;683133;28;1181;-86
2023/01/06 00:07:50;;;;;;;10.05;6.95;;;;;;;12.25;69.98;101282.03;682919;28;1000;-86
2023/01/06 00:08:10;;;;;;;10.77;7.35;;;;;;;12.23;69.79;101281.06;690441;28;1361;-86
2023/01/06 00:08:33;;;;;;;10.80;7.47;;;;;;;12.16;69.99;101281.78;688500;28;787;-86
2023/01/06 00:08:55;;;;;;;9.88;7.97;;;;;;;12.31;69.82;101281.31;688374;28;1198;-87
2023/01/06 00:09:16;;;;;;;9.25;8.07;;;;;;;12.26;69.90;101277.66;688419;28;1073;-86
2023/01/06 00:09:42;;;;;;;9.27;8.27;;;;;;;12.24;70.00;101269.78;685700;28;1134;-85
2023/01/06 00:10:03;;;;;;;8.60;7.68;;;;;;;12.29;69.83;101278.66;684943;28;1371;-86
2023/01/06 00:10:24;;;;;;;8.68;7.60;;;;;;;12.23;69.87;101273.22;680409;29;1247;-86
2023/01/06 00:10:44;;;;;;;10.52;7.90;;;;;;;12.27;69.90;101275.09;680465;29;1127;-87
2023/01/06 00:11:09;;;;;;;11.17;8.17;;;;;;;12.28;69.50;101273.41;685316;28;1294;-86
2023/01/06 00:11:30;;;;;;;12.77;8.60;;;;;;;12.31;70.11;101279.56;683186;28;823;-86
2023/01/06 00:11:51;;;;;;;12.95;8.60;;;;;;;12.30;70.02;101280.41;683017;28;1344;-86
2023/01/06 00:12:11;;;;;;;12.63;8.48;;;;;;;12.28;70.00;101271.66;685629;28;1134;-86
2023/01/06 00:12:32;;;;;;;12.37;8.10;;;;;;;12.26;69.71;101273.34;680570;28;1280;-86
2023/01/06 00:12:53;;;;;;;11.73;8.13;;;;;;;12.29;70.05;101268.19;682920;29;1374;-85
2023/01/06 00:13:13;;;;;;;13.30;8.40;;;;;;;12.24;69.90;101269.78;688357;28;1088;-86
2023/01/06 00:13:34;;;;;;;12.48;8.40;;;;;;;12.24;69.95;101269.78;688466;28;824;-86
2023/01/06 00:13:55;;;;;;;11.93;8.45;;;;;;;12.31;69.83;101287.41;688402;28;1084;-86
2023/01/06 00:14:16;;;;;;;10.73;8.73;;;;;;;12.30;69.75;101290.88;685626;28;1249;-86
2023/01/06 00:14:36;;;;;;;10.80;8.90;;;;;;;12.26;69.85;101273.34;680481;29;1123;-86
2023/01/06 00:14:57;;;;;;;11.00;8.87;;;;;;;12.31;69.68;101279.56;685563;28;1179;-86
2023/01/06 00:15:19;;;;;;;11.02;8.60;;;;;;;12.32;69.88;101285.69;685723;28;1017;-86
2023/01/06 00:15:40;;;;;;;11.82;8.70;;;;;;;12.27;69.77;101275.09;691116;28;1394;-86
2023/01/06 00:16:12;;;;;;;12.02;8.68;;;;;;;12.32;69.90;101276.13;688496;28;1195;-86
2023/01/06 00:17:02;;;;;;;12.40;9.25;;;;;;;12.39;69.89;101289.38;683184;29;1252;-86
2023/01/06 00:17:23;;;;;;;12.75;9.02;;;;;;;12.39;69.73;101284.13;685749;28;1226;-86
2023/01/06 00:17:44;;;;;;;11.52;8.77;;;;;;;12.32;69.65;101268.28;683059;28;1205;-85
2023/01/06 00:18:04;;;;;;;11.82;9.18;;;;;;;12.29;69.72;101275.16;683318;28;1046;-86
2023/01/06 00:18:25;;;;;;;13.10;9.90;;;;;;;12.36;69.68;101289.31;688425;28;1216;-86
2023/01/06 00:18:46;;;;;;;12.67;9.70;;;;;;;12.33;69.69;101272.69;685696;28;1248;-86
2023/01/06 00:19:09;;;;;;;13.00;9.80;;;;;;;12.28;69.79;101269.03;688539;28;1128;-86
2023/01/06 00:19:29;;;;;;;12.20;9.80;;;;;;;12.38;69.89;101285.00;685630;28;1390;-86
2023/01/06 00:19:50;;;;;;;13.10;9.83;;;;;;;12.30;69.59;101279.56;685759;28;748;-86
2023/01/06 00:20:12;;;;;;;11.90;9.57;;;;;;;12.38;69.94;101282.38;685670;28;1176;-85
2023/01/06 00:20:33;;;;;;;12.10;9.50;;;;;;;12.39;69.89;101281.53;688379;28;1315;-87
2023/01/06 00:20:56;;;;;;;11.70;10.10;;;;;;;12.32;69.70;101268.28;688514;28;887;-87
2023/01/06 00:21:17;;;;;;;11.90;10.50;;;;;;;12.33;69.56;101275.28;688436;28;1026;-86
2023/01/06 00:21:38;;;;;;;12.13;10.30;;;;;;;12.38;69.75;101274.53;683221;29;801;-86
2023/01/06 00:21:58;;;;;;;12.70;10.38;;;;;;;12.33;69.45;101274.41;683031;29;1198;-86
2023/01/06 00:22:19;;;;;;;13.60;10.30;;;;;;;12.43;69.74;101280.78;685611;28;1122;-86
2023/01/06 00:22:40;;;;;;;14.50;10.13;;;;;;;12.39;69.72;101285.03;688467;28;1123;-86
2023/01/06 00:23:02;;;;;;;16.27;10.30;;;;;;;12.40;69.78;101285.94;691229;28;803;-86
2023/01/06 00:23:23;;;;;;;15.40;10.43;;;;;;;12.37;69.79;101270.13;688347;28;920;-86
2023/01/06 00:23:43;;;;;;;13.38;10.80;;;;;;;12.31;69.82;101263.88;685797;28;1146;-85
2023/01/06 00:24:04;;;;;;;11.87;10.57;;;;;;;12.34;69.57;101266.59;682880;28;1418;-86
2023/01/06 00:24:24;;;;;;;12.90;11.00;;;;;;;12.32;70.07;101264.78;680339;29;1907;-86
2023/01/06 00:24:45;;;;;;;13.27;11.15;;;;;;;12.37;69.63;101281.50;683089;29;952;-86
2023/01/06 00:25:09;;;;;;;14.50;11.60;;;;;;;12.34;69.60;101274.44;685735;28;1321;-86
2023/01/06 00:25:29;;;;;;;14.60;11.30;;;;;;;12.36;69.97;101273.59;683207;28;1349;-86
2023/01/06 00:25:51;;;;;;;15.80;11.40;;;;;;;12.39;70.05;101277.19;682958;28;1244;-86
2023/01/06 00:26:11;;;;;;;15.48;11.27;;;;;;;12.36;69.81;101274.50;682953;28;1466;-86
2023/01/06 00:26:32;;;;;;;14.88;11.57;;;;;;;12.34;69.83;101277.06;680468;29;1336;-86
2023/01/06 00:26:52;;;;;;;13.80;11.38;;;;;;;12.36;69.95;101276.22;682713;29;1327;-85
2023/01/06 00:27:13;;;;;;;13.75;11.02;;;;;;;12.40;69.87;101275.47;682969;28;1316;-86
2023/01/06 00:27:34;;;;;;;14.83;11.30;;;;;;;12.39;69.43;101271.06;685794;28;836;-86
2023/01/06 00:27:55;;;;;;;16.23;11.63;;;;;;;12.37;69.71;101272.75;682940;29;1178;-86
2023/01/06 00:28:16;;;;;;;16.50;11.73;;;;;;;12.41;69.54;101277.25;682924;28;1471;-85
2023/01/06 00:28:37;;;;;;;14.75;11.07;;;;;;;12.42;69.68;101274.66;685871;28;776;-86
2023/01/06 00:28:57;;;;;;;14.50;11.93;;;;;;;12.43;69.79;101270.31;680185;29;1289;-86
2023/01/06 00:29:37;;;;;;;16.65;12.65;;;;;;;12.40;69.72;101262.38;685221;28;1302;-86
2023/01/06 00:29:58;;;;;;;17.60;12.55;;;;;;;12.40;69.69;101267.63;688235;28;1379;-86
2023/01/06 00:30:18;;;;;;;15.37;11.90;;;;;;;12.38;69.84;101262.34;685725;28;1069;-86
2023/01/06 00:30:39;;;;;;;16.27;12.27;;;;;;;12.39;69.90;101264.09;680430;28;1203;-86
2023/01/06 00:31:11;;;;;;;18.23;12.63;;;;;;;12.42;69.90;101265.94;680376;28;1297;-86
2023/01/06 00:31:33;;;;;;;18.58;12.82;;;;;;;12.43;69.69;101267.69;683039;28;1170;-86
2023/01/06 00:31:59;;;;;;;16.67;12.68;;;;;;;12.45;69.96;101273.84;682954;29;1301;-86
2023/01/06 00:32:19;;;;;;;19.45;13.05;;;;;;;12.42;69.79;101274.66;685687;28;1032;-86
2023/01/06 00:32:40;;;;;;;19.70;13.63;;;;;;;12.34;69.99;101258.75;685897;28;1259;-86
2023/01/06 00:33:00;;;;;;;19.30;13.70;;;;;;;12.46;69.87;101265.16;688465;28;795;-86
2023/01/06 00:33:21;;;;;;;19.67;13.73;;;;;;;12.41;69.99;101256.31;682969;28;1297;-86
2023/01/06 00:33:42;;;;;;;20.13;13.32;;;;;;;12.48;69.75;101264.34;688296;28;1168;-87
2023/01/06 00:34:03;;;;;;;22.20;13.45;;;;;;;12.42;69.81;101255.47;685480;28;1289;-85
2023/01/06 00:34:24;;;;;;;20.43;12.87;;;;;;;12.46;69.78;101254.69;680364;29;1105;-86
2023/01/06 00:34:45;;;;;;;19.02;13.02;;;;;;;12.43;69.86;101257.22;688345;28;1382;-86
2023/01/06 00:35:05;;;;;;;16.38;12.80;;;;;;;12.39;70.14;101248.41;688386;28;1211;-86
2023/01/06 00:35:26;;;;;;;17.15;13.48;;;;;;;12.47;69.91;101262.59;680329;29;1299;-86
2023/01/06 00:35:47;;;;;;;19.60;13.90;;;;;;;12.43;69.90;101255.47;680353;29;1276;-86
2023/01/06 00:36:09;;;;;;;20.15;14.23;;;;;;;12.48;70.05;101263.50;688058;28;1117;-86
2023/01/06 00:36:30;;;;;;;19.88;13.80;;;;;;;12.48;69.93;101268.72;685663;28;1037;-86
2023/01/06 00:36:51;;;;;;;17.55;12.98;;;;;;;12.45;70.09;101258.16;685292;28;1220;-86
2023/01/06 00:37:11;;;;;;;17.50;12.80;;;;;;;12.45;69.80;101253.81;688321;28;1121;-85
2023/01/06 00:37:32;;;;;;;17.08;12.45;;;;;;;12.39;69.93;101252.72;691018;28;1205;-86
2023/01/06 00:37:52;;;;;;;18.85;13.02;;;;;;;12.45;69.85;101253.81;685682;28;1292;-86
2023/01/06 00:38:14;;;;;;;19.90;13.30;;;;;;;12.44;69.97;101254.66;688230;28;1264;-87
2023/01/06 00:38:36;;;;;;;19.80;13.20;;;;;;;12.40;69.82;101237.09;688474;28;788;-86
2023/01/06 00:38:56;;;;;;;18.98;12.98;;;;;;;12.53;69.89;101261.88;685659;28;1292;-86
2023/01/06 00:39:41;;;;;;;17.55;12.90;;;;;;;12.57;70.17;101253.28;683071;28;1012;-87
2023/01/06 00:40:03;;;;;;;15.82;13.70;;;;;;;12.56;70.26;101261.97;688248;28;1174;-87
2023/01/06 00:40:24;;;;;;;15.80;13.55;;;;;;;12.54;69.96;101244.44;682965;28;1276;-86
2023/01/06 00:40:44;;;;;;;17.30;13.90;;;;;;;12.54;69.79;101237.47;685690;28;1295;-86
2023/01/06 00:42:04;;;;;;;18.70;13.10;;;;;;;12.69;69.59;101251.81;680093;29;1276;-86
2023/01/06 00:42:14;;;;;;;16.93;13.57;;;;;;;12.61;69.79;101244.63;688358;28;1328;-87
2023/01/06 00:42:25;;;;;;;18.50;13.07;;;;;;;12.64;69.55;101243.84;685445;28;1212;-86
2023/01/06 00:42:46;;;;;;;17.13;12.57;;;;;;;12.58;69.55;101244.56;685698;28;1150;-87
2023/01/06 00:43:07;;;;;;;15.97;12.40;;;;;;;12.56;69.83;101243.66;680464;29;1324;-87
2023/01/06 00:43:27;;;;;;;16.33;12.23;;;;;;;12.52;69.60;101241.78;685704;28;1173;-86
2023/01/06 00:43:48;;;;;;;16.20;12.38;;;;;;;12.52;69.82;101244.38;685634;28;1086;-86
2023/01/06 00:44:08;;;;;;;15.90;12.03;;;;;;;12.60;69.99;101253.34;680324;29;1131;-85
2023/01/06 00:44:34;;;;;;;16.13;12.80;;;;;;;12.60;69.62;101237.63;685746;28;1066;-84
2023/01/06 00:44:54;;;;;;;14.98;12.48;;;;;;;12.56;69.66;101241.03;682456;29;951;-86
2023/01/06 00:45:15;;;;;;;14.67;12.20;;;;;;;12.65;69.86;101249.97;685209;28;1167;-87
2023/01/06 00:45:35;;;;;;;13.43;11.23;;;;;;;12.66;69.91;101256.97;685879;28;776;-87
2023/01/06 00:45:56;;;;;;;13.35;11.20;;;;;;;12.65;69.71;101249.97;685600;28;1142;-87
2023/01/06 00:46:17;;;;;;;13.13;10.60;;;;;;;12.65;69.72;101256.06;682911;28;1067;-87
2023/01/06 00:46:38;;;;;;;13.90;11.07;;;;;;;12.67;69.82;101258.75;685670;28;1138;-87
2023/01/06 00:46:59;;;;;;;15.27;11.40;;;;;;;12.64;69.54;101253.44;688222;28;1010;-86
2023/01/06 00:47:19;;;;;;;16.00;11.80;;;;;;;12.68;69.87;101260.53;688357;28;1087;-87
2023/01/06 00:47:40;;;;;;;16.08;11.73;;;;;;;12.64;69.75;101241.22;685556;28;1206;-86
2023/01/06 00:48:00;;;;;;;15.73;11.57;;;;;;;12.69;70.00;101247.47;682950;29;1118;-87
2023/01/06 00:48:21;;;;;;;14.60;11.10;;;;;;;12.74;69.71;101251.09;682937;29;1085;-87
2023/01/06 00:48:42;;;;;;;15.00;10.82;;;;;;;12.78;69.65;101253.81;688196;28;1307;-86
2023/01/06 00:49:04;;;;;;;15.10;11.47;;;;;;;12.83;69.43;101265.28;685571;28;1191;-87
2023/01/06 00:49:25;;;;;;;15.35;11.60;;;;;;;12.82;69.43;101248.69;691145;28;1204;-86
2023/01/06 00:49:46;;;;;;;14.45;11.20;;;;;;;12.85;69.62;101254.00;691149;28;941;-86
2023/01/06 00:50:12;;;;;;;13.98;10.60;;;;;;;12.79;69.46;101240.72;688354;28;1119;-87
2023/01/06 00:50:33;;;;;;;13.85;10.30;;;;;;;12.85;69.37;101251.38;683126;29;1077;-86
2023/01/06 00:50:59;;;;;;;13.48;10.32;;;;;;;12.87;69.43;101257.56;680373;29;1192;-86
2023/01/06 00:51:20;;;;;;;13.95;10.23;;;;;;;12.81;69.48;101246.00;683028;29;1083;-86
2023/01/06 00:51:41;;;;;;;14.27;10.15;;;;;;;12.88;69.46;101251.47;685667;28;1232;-87
2023/01/06 00:52:02;;;;;;;13.90;9.82;;;;;;;12.84;69.19;101252.22;685621;28;1546;-86
2023/01/06 00:52:23;;;;;;;11.85;9.60;;;;;;;12.86;69.42;101245.28;683030;29;1194;-87
2023/01/06 00:52:43;;;;;;;10.80;9.70;;;;;;;12.86;69.37;101250.53;682949;29;1172;-87
2023/01/06 00:53:04;;;;;;;10.80;9.50;;;;;;;12.91;69.37;101262.88;682843;29;1327;-87
2023/01/06 00:53:25;;;;;;;12.03;10.10;;;;;;;12.91;69.32;101258.50;685521;28;1226;-87
2023/01/06 00:53:45;;;;;;;12.80;9.98;;;;;;;12.89;69.21;101250.63;685657;28;1132;-87
2023/01/06 00:54:07;;;;;;;14.38;10.00;;;;;;;12.85;69.40;101247.88;685784;28;1100;-85
2023/01/06 00:54:28;;;;;;;15.05;9.85;;;;;;;12.87;69.50;101251.41;688241;28;1354;-87
2023/01/06 00:54:48;;;;;;;15.77;10.00;;;;;;;12.93;69.34;101261.16;683095;28;1041;-87
2023/01/06 00:55:09;;;;;;;14.63;9.73;;;;;;;12.95;69.23;101256.88;685611;28;1587;-86
2023/01/06 00:55:30;;;;;;;12.65;9.10;;;;;;;12.89;69.43;101249.72;685763;28;1355;-86
2023/01/06 00:56:03;;;;;;;11.27;8.63;;;;;;;12.93;69.30;101255.94;685702;28;1282;-85
2023/01/06 00:56:24;;;;;;;9.93;7.90;;;;;;;12.94;69.52;101258.63;690979;28;1358;-87
2023/01/06 00:56:47;;;;;;;9.27;7.70;;;;;;;12.91;69.19;101242.78;685440;28;956;-85
2023/01/06 00:57:08;;;;;;;9.40;7.78;;;;;;;12.97;69.30;101252.59;682803;28;1412;-84
2023/01/06 00:57:28;;;;;;;9.52;7.47;;;;;;;13.02;69.33;101256.19;685649;28;1294;-85
2023/01/06 00:57:52;;;;;;;9.10;7.23;;;;;;;13.01;69.10;101252.72;685514;28;988;-85
2023/01/06 00:58:13;;;;;;;10.05;7.15;;;;;;;13.00;69.20;101255.28;685580;28;1002;-85
2023/01/06 00:58:34;;;;;;;10.17;7.40;;;;;;;12.95;69.06;101239.44;682963;29;1166;-85
2023/01/06 00:58:54;;;;;;;9.82;7.20;;;;;;;12.95;69.12;101251.63;683020;29;946;-84
2023/01/06 00:59:25;;;;;;;8.40;7.20;;;;;;;12.99;68.76;101240.41;680489;29;764;-86
2023/01/06 00:59:45;;;;;;;7.38;6.40;;;;;;;12.97;68.76;101242.13;682880;29;1075;-85
2023/01/06 01:00:08;;;;;;;7.15;6.20;;;;;;;13.02;68.73;101256.19;680349;29;1254;-86
2023/01/06 01:00:28;;;;;;;7.53;5.90;;;;;;;13.02;68.65;101246.63;680419;29;812;-86
2023/01/06 01:00:49;;;;;;;7.25;5.80;;;;;;;13.05;68.98;101251.06;677702;29;1290;-86
2023/01/06 01:01:10;;;;;;;8.30;5.80;;;;;;;13.06;68.59;101252.81;677651;29;1279;-85
2023/01/06 01:01:32;;;;;;;9.65;6.03;;;;;;;13.00;68.72;101240.47;682952;29;1332;-87
2023/01/06 01:01:55;;;;;;;10.88;6.53;;;;;;;13.09;68.62;101252.88;682987;29;1092;-85
2023/01/06 01:02:33;;;;;;;8.68;6.38;;;;;;;13.10;68.50;101257.28;685334;28;1180;-86
2023/01/06 01:02:54;;;;;;;7.35;6.30;;;;;;;12.98;68.44;101247.38;685395;28;973;-87
2023/01/06 01:03:15;;;;;;;8.00;6.13;;;;;;;13.00;68.66;101243.06;680173;29;1126;-86
2023/01/06 01:03:37;;;;;;;7.32;5.88;;;;;;;13.04;68.64;101269.34;685757;28;1311;-87
2023/01/06 01:03:57;;;;;;;7.63;5.70;;;;;;;13.02;68.42;101250.94;685626;28;1230;-86
2023/01/06 01:04:19;;;;;;;6.53;5.70;;;;;;;13.01;68.52;101238.72;690643;28;1915;-87
2023/01/06 01:04:40;;;;;;;7.57;5.60;;;;;;;13.05;68.51;101253.66;685843;28;784;-87
2023/01/06 01:05:00;;;;;;;6.57;5.53;;;;;;;13.09;68.31;101242.41;683177;28;1163;-87
2023/01/06 01:05:21;;;;;;;7.75;5.47;;;;;;;13.07;68.08;101233.63;682971;28;1254;-86
2023/01/06 01:05:42;;;;;;;6.00;5.20;;;;;;;13.09;68.13;101258.13;683254;28;1323;-87
2023/01/06 01:06:04;;;;;;;6.53;5.30;;;;;;;13.09;68.26;101247.66;680565;28;1078;-87
2023/01/06 01:06:25;;;;;;;6.28;5.68;;;;;;;13.14;68.04;101253.91;680531;29;1336;-87
2023/01/06 01:06:47;;;;;;;6.70;6.00;;;;;;;13.08;67.85;101235.41;680354;28;1105;-87
2023/01/06 01:07:07;;;;;;;7.00;5.70;;;;;;;13.09;67.87;101247.66;680577;28;1105;-87
2023/01/06 01:07:29;;;;;;;7.30;5.37;;;;;;;13.11;67.81;101245.97;683498;29;1227;-85
2023/01/06 01:07:49;;;;;;;6.53;4.80;;;;;;;13.12;67.74;101245.13;683296;29;1171;-85
2023/01/06 01:08:10;;;;;;;5.50;4.60;;;;;;;13.08;67.84;101239.78;678114;29;1529;-86
2023/01/06 01:08:39;;;;;;;6.28;4.60;;;;;;;13.20;67.55;101250.53;683417;29;1216;-87
2023/01/06 01:09:00;;;;;;;7.32;4.80;;;;;;;13.18;67.52;101256.59;685890;28;1107;-86
2023/01/06 01:09:24;;;;;;;6.43;4.90;;;;;;;13.13;67.54;101244.28;685928;28;1221;-85
2023/01/06 01:09:45;;;;;;;5.32;4.80;;;;;;;13.08;67.35;101231.91;683322;29;1130;-86
2023/01/06 01:10:07;;;;;;;6.50;4.93;;;;;;;13.14;67.46;101256.53;686204;28;1130;-86
2023/01/06 01:10:29;;;;;;;7.75;4.90;;;;;;;13.11;67.53;101245.97;680660;29;1253;-86
2023/01/06 01:10:49;;;;;;;7.78;4.95;;;;;;;13.19;67.38;101247.88;680842;29;1297;-85
2023/01/06 01:12:08;;;;;;;5.80;4.80;;;;;;;13.13;67.34;101248.63;680649;29;1115;-85
2023/01/06 01:12:32;;;;;;;8.20;4.82;;;;;;;13.09;67.30;101247.66;686210;28;954;-84
2023/01/06 01:12:53;;;;;;;6.35;4.70;;;;;;;13.13;67.37;101254.75;686035;28;1297;-86
2023/01/06 01:13:14;;;;;;;5.68;4.47;;;;;;;13.07;67.32;101237.97;680532;29;1261;-86
2023/01/06 01:13:35;;;;;;;5.20;4.30;;;;;;;13.11;67.37;101245.06;683311;29;1319;-86
2023/01/06 01:13:56;;;;;;;6.10;4.38;;;;;;;13.06;66.97;101238.81;683199;29;1216;-86
2023/01/06 01:14:18;;;;;;;6.55;4.40;;;;;;;13.04;67.09;101241.44;688485;28;1215;-85
2023/01/06 01:14:42;;;;;;;7.05;4.35;;;;;;;13.13;67.17;101254.75;686210;28;1220;-86
2023/01/06 01:15:03;;;;;;;8.73;4.30;;;;;;;13.11;67.13;101239.84;685876;28;1009;-84
2023/01/06 01:15:23;;;;;;;8.23;4.50;;;;;;;13.07;66.98;101241.50;688445;28;1440;-86
2023/01/06 01:15:44;;;;;;;7.57;4.50;;;;;;;13.11;67.04;101239.84;686280;28;1064;-86
2023/01/06 01:16:07;;;;;;;5.45;4.30;;;;;;;13.10;66.94;101230.19;685952;28;1152;-85
2023/01/06 01:16:27;;;;;;;5.60;4.20;;;;;;;13.10;66.92;101238.94;683203;29;1166;-86
2023/01/06 01:16:48;;;;;;;6.05;4.20;;;;;;;13.14;66.89;101245.13;682946;29;1139;-86
2023/01/06 01:17:22;;;;;;;6.77;4.60;;;;;;;13.13;66.77;101244.28;683256;29;1130;-84
2023/01/06 01:17:43;;;;;;;6.88;4.47;;;;;;;13.09;67.01;101239.78;687958;28;1106;-84
2023/01/06 01:18:03;;;;;;;6.88;4.10;;;;;;;13.09;66.85;101239.78;688517;28;1186;-86
2023/01/06 01:18:24;;;;;;;8.30;4.10;;;;;;;13.11;66.82;101230.25;685695;28;970;-86
2023/01/06 01:18:45;;;;;;;8.20;4.40;;;;;;;13.13;66.67;101241.66;685762;28;1013;-87
2023/01/06 01:19:07;;;;;;;7.50;4.40;;;;;;;13.14;66.84;101247.75;685577;28;1225;-87
2023/01/06 01:19:28;;;;;;;6.07;4.50;;;;;;;13.14;66.90;101251.28;683140;29;784;-87
2023/01/06 01:19:50;;;;;;;6.65;4.50;;;;;;;13.03;66.79;101237.00;685717;28;1182;-86
2023/01/06 01:20:11;;;;;;;6.88;4.82;;;;;;;13.07;66.82;101235.34;685597;28;1240;-85
2023/01/06 01:20:33;;;;;;;7.30;5.03;;;;;;;13.03;67.13;101231.75;683019;28;1070;-86
2023/01/06 01:20:53;;;;;;;5.13;4.45;;;;;;;13.08;66.65;101239.78;688353;28;969;-85
2023/01/06 01:21:14;;;;;;;4.77;3.90;;;;;;;13.08;66.87;101224.91;685547;28;1322;-86
2023/01/06 01:21:34;;;;;;;4.60;3.77;;;;;;;13.13;66.56;101238.13;683062;29;779;-86
2023/01/06 01:21:55;;;;;;;5.45;3.90;;;;;;;13.05;66.84;101224.84;685664;28;1252;-86
2023/01/06 01:22:17;;;;;;;5.38;3.80;;;;;;;13.08;66.62;101224.03;677837;29;1098;-86
2023/01/06 01:22:37;;;;;;;5.30;4.00;;;;;;;13.06;66.75;101231.88;677724;29;1179;-86
2023/01/06 01:22:58;;;;;;;6.47;4.10;;;;;;;13.04;66.79;101233.56;683049;28;1066;-86
2023/01/06 01:23:18;;;;;;;6.50;4.00;;;;;;;13.05;66.54;101227.47;685541;28;1171;-84
2023/01/06 01:23:39;;;;;;;6.55;3.88;;;;;;;13.10;66.79;101224.97;683077;29;1163;-86
2023/01/06 01:24:01;;;;;;;5.03;3.70;;;;;;;13.09;66.89;101242.41;682858;29;1417;-86
2023/01/06 01:24:22;;;;;;;5.05;3.78;;;;;;;13.12;66.69;101231.13;685353;28;1918;-86
2023/01/06 01:24:43;;;;;;;5.45;3.80;;;;;;;13.09;66.67;101226.69;690897;28;1361;-86
2023/01/06 01:25:05;;;;;;;6.40;3.97;;;;;;;13.09;66.59;101231.06;682992;29;1312;-85
2023/01/06 01:25:25;;;;;;;7.53;4.00;;;;;;;13.08;66.71;101234.53;682877;29;1250;-86
2023/01/06 01:25:46;;;;;;;6.87;3.90;;;;;;;13.08;66.76;101238.00;685634;28;1277;-87
2023/01/06 01:26:07;;;;;;;6.22;4.00;;;;;;;13.08;66.42;101232.78;691019;28;1111;-86
2023/01/06 01:26:28;;;;;;;6.67;4.10;;;;;;;13.11;66.85;101235.50;688177;28;1269;-86
2023/01/06 01:26:55;;;;;;;6.57;4.15;;;;;;;13.13;66.48;101228.53;688227;28;812;-85
2023/01/06 01:27:16;;;;;;;5.78;3.80;;;;;;;13.10;66.77;101225.84;685510;28;1092;-86
2023/01/06 01:27:37;;;;;;;4.28;3.70;;;;;;;13.16;66.42;101228.63;688340;28;1311;-86
2023/01/06 01:27:57;;;;;;;6.30;4.10;;;;;;;13.15;66.58;101234.69;682905;29;1266;-86
2023/01/06 01:28:18;;;;;;;7.15;4.13;;;;;;;13.10;66.45;101236.31;682967;29;1109;-86
2023/01/06 01:28:38;;;;;;;8.17;4.13;;;;;;;13.10;66.55;101228.44;688235;28;1225;-86
2023/01/06 01:29:00;;;;;;;6.63;3.80;;;;;;;13.05;66.45;101223.94;688212;28;1231;-86
2023/01/06 01:29:31;;;;;;;5.88;3.80;;;;;;;13.06;66.68;101236.19;687895;28;1179;-86
2023/01/06 01:29:51;;;;;;;4.72;3.80;;;;;;;13.06;66.51;101229.25;682863;29;1004;-86
2023/01/06 01:30:12;;;;;;;5.90;3.70;;;;;;;13.04;66.34;101237.91;677727;29;999;-86
2023/01/06 01:30:33;;;;;;;6.03;3.53;;;;;;;13.06;66.33;101236.19;677792;29;792;-87
2023/01/06 01:31:01;;;;;;;4.50;3.38;;;;;;;13.14;66.39;101234.66;680272;29;1297;-86
2023/01/06 01:31:22;;;;;;;5.68;3.72;;;;;;;13.08;66.41;101234.53;685461;28;1435;-86
2023/01/06 01:31:43;;;;;;;6.05;3.70;;;;;;;13.11;66.41;101235.50;685658;28;1248;-85
2023/01/06 01:32:04;;;;;;;6.60;3.80;;;;;;;13.10;66.09;101233.69;685434;28;1351;-86
2023/01/06 01:32:27;;;;;;;6.20;3.50;;;;;;;13.15;66.18;101236.47;688190;28;1388;-86
2023/01/06 01:32:48;;;;;;;5.85;3.50;;;;;;;13.12;66.54;101241.59;688168;28;1093;-86
2023/01/06 01:33:08;;;;;;;5.80;3.73;;;;;;;13.08;66.28;101224.91;682839;29;1065;-86
2023/01/06 01:33:29;;;;;;;5.20;4.10;;;;;;;13.10;66.40;101238.06;680311;29;1295;-86
2023/01/06 01:33:50;;;;;;;6.13;4.40;;;;;;;13.09;66.53;101231.06;682912;28;1057;-86
2023/01/06 01:34:12;;;;;;;6.60;4.23;;;;;;;13.14;66.17;101266.09;682900;29;1190;-86
2023/01/06 01:34:33;;;;;;;5.85;3.72;;;;;;;13.15;66.41;101239.94;677697;29;1349;-87
2023/01/06 01:34:53;;;;;;;4.47;3.20;;;;;;;13.11;66.05;101240.72;680250;29;1206;-86
2023/01/06 01:35:14;;;;;;;4.93;3.38;;;;;;;13.10;66.10;101225.84;682784;29;1298;-86
2023/01/06 01:35:34;;;;;;;5.93;3.10;;;;;;;13.14;65.92;101235.56;682985;29;784;-86
2023/01/06 01:35:55;;;;;;;7.33;3.17;;;;;;;13.21;66.11;101240.97;682185;29;1171;-85
2023/01/06 01:36:17;;;;;;;7.18;3.30;;;;;;;13.10;65.96;101233.69;682835;29;1055;-86
2023/01/06 01:36:40;;;;;;;6.80;3.50;;;;;;;13.18;66.08;101235.63;691031;28;1339;-86
2023/01/06 01:37:02;;;;;;;6.97;3.80;;;;;;;13.10;66.24;101238.94;685569;28;1380;-86
2023/01/06 01:37:22;;;;;;;7.80;3.72;;;;;;;13.14;66.42;101235.56;680274;29;1361;-86
2023/01/06 01:37:43;;;;;;;8.40;3.90;;;;;;;13.21;65.75;101244.44;682829;29;1147;-85
2023/01/06 01:38:03;;;;;;;6.25;3.78;;;;;;;13.14;66.13;101227.69;685547;28;1162;-86
2023/01/06 01:38:25;;;;;;;5.45;3.72;;;;;;;13.11;65.92;101239.84;685574;28;1187;-86
2023/01/06 01:38:46;;;;;;;6.70;3.50;;;;;;;13.12;66.15;101228.50;685625;28;1276;-85
2023/01/06 01:39:08;;;;;;;8.40;3.40;;;;;;;13.12;65.96;101232.03;685565;28;1299;-86
2023/01/06 01:39:29;;;;;;;7.65;3.20;;;;;;;13.13;66.21;101228.53;685699;28;1250;-86
2023/01/06 01:39:50;;;;;;;4.90;3.10;;;;;;;13.15;66.16;101247.81;680319;29;1268;-86
2023/01/06 01:40:11;;;;;;;3.88;3.42;;;;;;;13.08;65.92;101224.91;685600;28;1337;-86
2023/01/06 01:40:32;;;;;;;4.15;3.60;;;;;;;13.10;66.24;101233.69;685650;28;1187;-86
2023/01/06 01:40:52;;;;;;;4.97;3.70;;;;;;;13.12;65.95;101237.25;685335;28;1254;-86
2023/01/06 01:41:16;;;;;;;5.20;3.40;;;;;;;13.13;66.09;101239.03;685559;28;1018;-86
2023/01/06 01:41:38;;;;;;;5.85;3.30;;;;;;;13.12;65.95;101221.53;685581;28;1291;-86
2023/01/06 01:41:59;;;;;;;5.40;3.20;;;;;;;13.19;65.93;101229.53;682948;29;1066;-86
2023/01/06 01:42:20;;;;;;;5.55;3.20;;;;;;;13.11;66.14;101219.78;685453;28;1266;-86
2023/01/06 01:42:41;;;;;;;4.55;3.28;;;;;;;13.14;65.99;101224.16;688193;28;1290;-86
2023/01/06 01:43:02;;;;;;;4.10;3.03;;;;;;;13.14;66.05;101225.06;682911;28;1245;-86
2023/01/06 01:43:23;;;;;;;3.22;2.92;;;;;;;13.11;66.17;101222.38;685471;28;1181;-86
2023/01/06 01:43:54;;;;;;;3.85;2.90;;;;;;;13.09;66.04;101221.44;682857;28;1371;-87
2023/01/06 01:44:53;;;;;;;5.47;2.83;;;;;;;13.20;66.22;101233.94;685440;28;1968;-86
2023/01/06 01:45:22;;;;;;;8.95;3.45;;;;;;;13.17;65.85;101226.88;688142;28;1274;-85
2023/01/06 01:45:46;;;;;;;5.05;3.33;;;;;;;13.18;65.84;101230.38;682695;28;1385;-87